This is the latest recevied weather packets stored in our database for station/object IT9CYW-10. If no packets are shown the sender has not sent any weather packets the latest 10 day(s).
| Time | Temp. | Humidity | Pressure | Rain* | Wind** | Luminosity | Snow |
|---|---|---|---|---|---|---|---|
| 1777475581 | 23.33° C | 47% | 995.7 hPa | - | - | 134 W/m² | - |
| 1777474680 | 23.89° C | 48% | 995.7 hPa | - | - | 179 W/m² | - |
| 1777473780 | 24.44° C | 48% | 995.5 hPa | - | - | 256 W/m² | - |
| 1777472880 | 23.33° C | 49% | 995.9 hPa | - | - | 534 W/m² | - |
| 1777471980 | 23.89° C | 49% | 996.2 hPa | - | - | 210 W/m² | - |
| 1777471080 | 22.78° C | 51% | 996 hPa | - | - | 714 W/m² | - |
| 1777470180 | 22.22° C | 53% | 996 hPa | - | - | 412 W/m² | - |
| 1777469280 | 21.67° C | 58% | 996 hPa | - | - | 365 W/m² | - |
| 1777468380 | 22.78° C | 56% | 995.7 hPa | - | - | 240 W/m² | - |
| 1777467479 | 22.22° C | 59% | 996.2 hPa | - | - | 625 W/m² | - |
| 1777466579 | 21.11° C | 61% | 996.4 hPa | - | - | 224 W/m² | - |
| 1777465679 | 22.22° C | 59% | 996.5 hPa | - | - | 196 W/m² | - |
| 1777464779 | 22.22° C | 56% | 996.7 hPa | - | - | 255 W/m² | - |
| 1777463879 | 22.22° C | 55% | 996.2 hPa | - | - | 164 W/m² | - |
| 1777462978 | 23.89° C | 52% | 996.7 hPa | - | - | 314 W/m² | - |
| 1777461185 | 24.44° C | 50% | 996.9 hPa | - | - | 489 W/m² | - |
| 1777460285 | 23.33° C | 51% | 996.7 hPa | - | - | 543 W/m² | - |
| 1777459384 | 22.78° C | 54% | 997.4 hPa | - | - | 426 W/m² | - |
| 1777458484 | 22.78° C | 55% | 997.4 hPa | - | - | 417 W/m² | - |
| 1777457583 | 21.67° C | 63% | 997.4 hPa | - | - | 232 W/m² | - |
| 1777456683 | 21.11° C | 61% | 997 hPa | - | - | 153 W/m² | - |
| 1777455783 | 21.11° C | 61% | 997.2 hPa | - | - | 171 W/m² | - |
| 1777454882 | 22.22° C | 59% | 997 hPa | - | - | 251 W/m² | - |
| 1777453982 | 22.78° C | 55% | 997.2 hPa | - | - | 334 W/m² | - |
| 1777453082 | 22.78° C | 54% | 997 hPa | - | - | 276 W/m² | - |
* Rain since midnight (hover to see other rain measurements)
** Current wind speed in m/s (hover to see current wind gust speed)